PWSweather.com
Personal Weather Stations
Station Observations
MENWDWX1
Menstrie, ScotlandGB

MenstrieScotlandGB

Lat: 56.148322, Lon: -3.85483

Elevation: 62

Station Type: Davis Vantage Pro 2

High Low Average
Temperature 44.2°F6.8°C 35.1°F1.7°C 40.3°F4.6°C
Dew Point 37.1°F2.8°C 30.2°F-1.0°C 34.0°F1.1°C
Winds 10.4 mph 16.7 kmh Calm Calm 4.0 mph ESE6.4 kmh ESE
Wind Gusts 15.0 mph24.1 kmh -- 6.0 mph9.7 kmh
Humidity 83% 73% 78%
Pressure 30.29 in1025.7 mb 30.08 in1018.6 mb -
Precipitation 0.00 in0.0 mm - -
Hour Temp Dew Point Humidity Winds Wind Gusts Pressure Precip Precip Rate Daily Precip Total
12:00 AM 35.1°F1.7°C 30.2°F-1.0°C 82% Calm Calm -- 30.28 in1025.4 mb - 0.00 in0.0 mm 0.00 in0.0 mm
12:05 AM 35.1°F1.7°C 30.2°F-1.0°C 82% Calm Calm -- 30.28 in1025.4 mb - 0.00 in0.0 mm 0.00 in0.0 mm
12:10 AM 35.1°F1.7°C 30.2°F-1.0°C 82% Calm Calm -- 30.28 in1025.4 mb - 0.00 in0.0 mm 0.00 in0.0 mm
12:15 AM 35.1°F1.7°C 30.2°F-1.0°C 82% Calm Calm -- 30.28 in1025.4 mb - 0.00 in0.0 mm 0.00 in0.0 mm
12:20 AM 35.2°F1.8°C 30.3°F-0.9°C 82% Calm Calm -- 30.28 in1025.4 mb - 0.00 in0.0 mm 0.00 in0.0 mm
12:25 AM 35.3°F1.8°C 30.4°F-0.9°C 82% Calm Calm -- 30.28 in1025.4 mb - 0.00 in0.0 mm 0.00 in0.0 mm
12:30 AM 35.2°F1.8°C 30.3°F-0.9°C 82% Calm Calm -- 30.29 in1025.7 mb - 0.00 in0.0 mm 0.00 in0.0 mm
12:35 AM 35.2°F1.8°C 30.2°F-1.0°C 82% Calm Calm -- 30.29 in1025.7 mb - 0.00 in0.0 mm 0.00 in0.0 mm
12:40 AM 35.1°F1.7°C 30.2°F-1.0°C 82% Calm Calm -- 30.28 in1025.4 mb - 0.00 in0.0 mm 0.00 in0.0 mm
12:45 AM 35.1°F1.7°C 30.2°F-1.0°C 82% Calm Calm -- 30.28 in1025.4 mb - 0.00 in0.0 mm 0.00 in0.0 mm
12:50 AM 35.1°F1.7°C 30.2°F-1.0°C 82% Calm Calm -- 30.28 in1025.4 mb - 0.00 in0.0 mm 0.00 in0.0 mm
12:55 AM 35.1°F1.7°C 30.2°F-1.0°C 82% Calm Calm -- 30.28 in1025.4 mb - 0.00 in0.0 mm 0.00 in0.0 mm
01:00 AM 35.3°F1.8°C 30.3°F-0.9°C 82% Calm Calm -- 30.27 in1025.1 mb - 0.00 in0.0 mm 0.00 in0.0 mm
01:05 AM 35.3°F1.8°C 30.4°F-0.9°C 82% Calm Calm -- 30.27 in1025.1 mb - 0.00 in0.0 mm 0.00 in0.0 mm
01:10 AM 35.4°F1.9°C 30.5°F-0.8°C 82% 1.2 mph E1.9 kmh E 3.5 mph5.6 kmh 30.28 in1025.4 mb - 0.00 in0.0 mm 0.00 in0.0 mm
01:15 AM 35.3°F1.8°C 30.4°F-0.9°C 82% Calm Calm -- 30.28 in1025.4 mb - 0.00 in0.0 mm 0.00 in0.0 mm
01:20 AM 35.2°F1.8°C 30.3°F-0.9°C 82% 1.2 mph ESE1.9 kmh ESE 2.3 mph3.7 kmh 30.28 in1025.4 mb - 0.00 in0.0 mm 0.00 in0.0 mm
01:25 AM 35.2°F1.8°C 30.3°F-0.9°C 82% 1.2 mph ESE1.9 kmh ESE 2.3 mph3.7 kmh 30.28 in1025.4 mb - 0.00 in0.0 mm 0.00 in0.0 mm
01:30 AM 35.1°F1.7°C 30.2°F-1.0°C 82% Calm Calm 1.2 mph1.9 kmh 30.28 in1025.4 mb - 0.00 in0.0 mm 0.00 in0.0 mm
01:35 AM 35.2°F1.8°C 30.3°F-0.9°C 82% Calm Calm -- 30.28 in1025.4 mb - 0.00 in0.0 mm 0.00 in0.0 mm
01:40 AM 35.2°F1.8°C 30.3°F-0.9°C 82% Calm Calm -- 30.27 in1025.1 mb - 0.00 in0.0 mm 0.00 in0.0 mm
01:45 AM 35.3°F1.8°C 30.4°F-0.9°C 82% Calm Calm -- 30.27 in1025.1 mb - 0.00 in0.0 mm 0.00 in0.0 mm
01:50 AM 35.4°F1.9°C 30.5°F-0.8°C 82% Calm Calm -- 30.27 in1025.1 mb - 0.00 in0.0 mm 0.00 in0.0 mm
01:55 AM 35.5°F1.9°C 30.5°F-0.8°C 82% Calm Calm -- 30.28 in1025.4 mb - 0.00 in0.0 mm 0.00 in0.0 mm
02:00 AM 35.5°F1.9°C 30.5°F-0.8°C 82% Calm Calm -- 30.27 in1025.1 mb - 0.00 in0.0 mm 0.00 in0.0 mm
02:05 AM 35.5°F1.9°C 30.5°F-0.8°C 82% Calm Calm -- 30.27 in1025.1 mb - 0.00 in0.0 mm 0.00 in0.0 mm
02:10 AM 35.5°F1.9°C 30.5°F-0.8°C 82% Calm Calm -- 30.27 in1025.1 mb - 0.00 in0.0 mm 0.00 in0.0 mm
02:15 AM 35.5°F1.9°C 30.5°F-0.8°C 82% Calm Calm -- 30.27 in1025.1 mb - 0.00 in0.0 mm 0.00 in0.0 mm
02:20 AM 35.6°F2.0°C 30.6°F-0.8°C 82% Calm Calm -- 30.27 in1025.1 mb - 0.00 in0.0 mm 0.00 in0.0 mm
02:25 AM 35.6°F2.0°C 30.6°F-0.8°C 82% Calm Calm -- 30.28 in1025.4 mb - 0.00 in0.0 mm 0.00 in0.0 mm
02:30 AM 35.7°F2.1°C 30.7°F-0.7°C 82% Calm Calm -- 30.27 in1025.1 mb - 0.00 in0.0 mm 0.00 in0.0 mm
02:35 AM 35.7°F2.1°C 30.7°F-0.7°C 82% Calm Calm -- 30.27 in1025.1 mb - 0.00 in0.0 mm 0.00 in0.0 mm
02:40 AM 35.7°F2.1°C 30.7°F-0.7°C 82% Calm Calm -- 30.28 in1025.4 mb - 0.00 in0.0 mm 0.00 in0.0 mm
02:45 AM 35.8°F2.1°C 30.8°F-0.7°C 82% Calm Calm -- 30.27 in1025.1 mb - 0.00 in0.0 mm 0.00 in0.0 mm
02:50 AM 35.9°F2.2°C 30.9°F-0.6°C 82% Calm Calm -- 30.27 in1025.1 mb - 0.00 in0.0 mm 0.00 in0.0 mm
02:55 AM 35.9°F2.2°C 30.9°F-0.6°C 82% Calm Calm -- 30.27 in1025.1 mb - 0.00 in0.0 mm 0.00 in0.0 mm
03:00 AM 36.0°F2.2°C 31.0°F-0.6°C 82% Calm Calm -- 30.27 in1025.1 mb - 0.00 in0.0 mm 0.00 in0.0 mm
03:05 AM 36.1°F2.3°C 31.1°F-0.5°C 82% Calm Calm -- 30.27 in1025.1 mb - 0.00 in0.0 mm 0.00 in0.0 mm
03:10 AM 36.1°F2.3°C 31.1°F-0.5°C 82% Calm Calm -- 30.27 in1025.1 mb - 0.00 in0.0 mm 0.00 in0.0 mm
03:15 AM 36.1°F2.3°C 31.1°F-0.5°C 82% Calm Calm -- 30.27 in1025.1 mb - 0.00 in0.0 mm 0.00 in0.0 mm
03:20 AM 36.2°F2.3°C 31.2°F-0.4°C 82% Calm Calm -- 30.27 in1025.1 mb - 0.00 in0.0 mm 0.00 in0.0 mm
03:25 AM 36.2°F2.3°C 31.2°F-0.4°C 82% Calm Calm -- 30.27 in1025.1 mb - 0.00 in0.0 mm 0.00 in0.0 mm
03:30 AM 36.1°F2.3°C 31.1°F-0.5°C 82% Calm Calm -- 30.26 in1024.7 mb - 0.00 in0.0 mm 0.00 in0.0 mm
03:35 AM 36.1°F2.3°C 31.1°F-0.5°C 82% Calm Calm -- 30.26 in1024.7 mb - 0.00 in0.0 mm 0.00 in0.0 mm
03:40 AM 36.1°F2.3°C 31.1°F-0.5°C 82% Calm Calm -- 30.26 in1024.7 mb - 0.00 in0.0 mm 0.00 in0.0 mm
03:45 AM 36.2°F2.3°C 31.2°F-0.4°C 82% Calm Calm -- 30.25 in1024.4 mb - 0.00 in0.0 mm 0.00 in0.0 mm
03:50 AM 36.2°F2.3°C 31.2°F-0.4°C 82% Calm Calm -- 30.25 in1024.4 mb - 0.00 in0.0 mm 0.00 in0.0 mm
03:55 AM 36.2°F2.3°C 31.2°F-0.4°C 82% Calm Calm -- 30.25 in1024.4 mb - 0.00 in0.0 mm 0.00 in0.0 mm
04:00 AM 36.3°F2.4°C 31.4°F-0.3°C 82% Calm Calm -- 30.25 in1024.4 mb - 0.00 in0.0 mm 0.00 in0.0 mm
04:05 AM 36.4°F2.4°C 31.4°F-0.3°C 82% Calm Calm -- 30.25 in1024.4 mb - 0.00 in0.0 mm 0.00 in0.0 mm
04:10 AM 36.5°F2.5°C 31.5°F-0.3°C 82% Calm Calm -- 30.25 in1024.4 mb - 0.00 in0.0 mm 0.00 in0.0 mm
04:15 AM 36.6°F2.6°C 31.6°F-0.2°C 82% Calm Calm -- 30.25 in1024.4 mb - 0.00 in0.0 mm 0.00 in0.0 mm
04:20 AM 36.8°F2.7°C 31.8°F-0.1°C 82% Calm Calm -- 30.25 in1024.4 mb - 0.00 in0.0 mm 0.00 in0.0 mm
04:25 AM 36.9°F2.7°C 31.9°F-0.1°C 82% Calm Calm -- 30.25 in1024.4 mb - 0.00 in0.0 mm 0.00 in0.0 mm
04:30 AM 36.9°F2.7°C 31.9°F-0.1°C 82% Calm Calm -- 30.25 in1024.4 mb - 0.00 in0.0 mm 0.00 in0.0 mm
04:35 AM 36.8°F2.7°C 31.8°F-0.1°C 82% Calm Calm -- 30.25 in1024.4 mb - 0.00 in0.0 mm 0.00 in0.0 mm
04:40 AM 36.6°F2.6°C 31.6°F-0.2°C 82% Calm Calm -- 30.25 in1024.4 mb - 0.00 in0.0 mm 0.00 in0.0 mm
04:45 AM 36.3°F2.4°C 31.3°F-0.4°C 82% Calm Calm -- 30.25 in1024.4 mb - 0.00 in0.0 mm 0.00 in0.0 mm
04:50 AM 36.2°F2.3°C 31.2°F-0.4°C 82% Calm Calm -- 30.25 in1024.4 mb - 0.00 in0.0 mm 0.00 in0.0 mm
04:55 AM 36.2°F2.3°C 31.2°F-0.4°C 82% Calm Calm -- 30.25 in1024.4 mb - 0.00 in0.0 mm 0.00 in0.0 mm
05:00 AM 36.2°F2.3°C 31.3°F-0.4°C 82% Calm Calm -- 30.25 in1024.4 mb - 0.00 in0.0 mm 0.00 in0.0 mm
05:05 AM 36.4°F2.4°C 31.4°F-0.3°C 82% Calm Calm -- 30.25 in1024.4 mb - 0.00 in0.0 mm 0.00 in0.0 mm
05:10 AM 36.4°F2.4°C 31.5°F-0.3°C 82% Calm Calm -- 30.25 in1024.4 mb - 0.00 in0.0 mm 0.00 in0.0 mm
05:15 AM 36.5°F2.5°C 31.5°F-0.3°C 82% Calm Calm -- 30.25 in1024.4 mb - 0.00 in0.0 mm 0.00 in0.0 mm
05:20 AM 36.5°F2.5°C 31.5°F-0.3°C 82% Calm Calm -- 30.25 in1024.4 mb - 0.00 in0.0 mm 0.00 in0.0 mm
05:25 AM 36.5°F2.5°C 31.5°F-0.3°C 82% Calm Calm -- 30.25 in1024.4 mb - 0.00 in0.0 mm 0.00 in0.0 mm
05:30 AM 36.6°F2.6°C 31.6°F-0.2°C 82% Calm Calm -- 30.25 in1024.4 mb - 0.00 in0.0 mm 0.00 in0.0 mm
05:35 AM 36.6°F2.6°C 31.6°F-0.2°C 82% Calm Calm -- 30.25 in1024.4 mb - 0.00 in0.0 mm 0.00 in0.0 mm
05:40 AM 36.6°F2.6°C 31.6°F-0.2°C 82% Calm Calm -- 30.25 in1024.4 mb - 0.00 in0.0 mm 0.00 in0.0 mm
05:45 AM 36.6°F2.6°C 31.6°F-0.2°C 82% Calm Calm -- 30.25 in1024.4 mb - 0.00 in0.0 mm 0.00 in0.0 mm
05:50 AM 36.6°F2.6°C 31.6°F-0.2°C 82% Calm Calm -- 30.25 in1024.4 mb - 0.00 in0.0 mm 0.00 in0.0 mm
05:55 AM 36.6°F2.6°C 31.6°F-0.2°C 82% Calm Calm -- 30.25 in1024.4 mb - 0.00 in0.0 mm 0.00 in0.0 mm
06:00 AM 36.6°F2.6°C 31.6°F-0.2°C 82% Calm Calm -- 30.25 in1024.4 mb - 0.00 in0.0 mm 0.00 in0.0 mm
06:05 AM 36.7°F2.6°C 31.7°F-0.2°C 82% Calm Calm -- 30.25 in1024.4 mb - 0.00 in0.0 mm 0.00 in0.0 mm
06:10 AM 36.7°F2.6°C 31.8°F-0.1°C 82% Calm Calm -- 30.25 in1024.4 mb - 0.00 in0.0 mm 0.00 in0.0 mm
06:15 AM 36.7°F2.6°C 31.7°F-0.2°C 82% Calm Calm -- 30.25 in1024.4 mb - 0.00 in0.0 mm 0.00 in0.0 mm
06:20 AM 36.8°F2.7°C 31.8°F-0.1°C 82% Calm Calm -- 30.24 in1024.0 mb - 0.00 in0.0 mm 0.00 in0.0 mm
06:25 AM 36.9°F2.7°C 31.9°F-0.1°C 82% Calm Calm -- 30.24 in1024.0 mb - 0.00 in0.0 mm 0.00 in0.0 mm
06:30 AM 37.0°F2.8°C 32.0°F0.0°C 82% 1.2 mph ESE1.9 kmh ESE 3.5 mph5.6 kmh 30.24 in1024.0 mb - 0.00 in0.0 mm 0.00 in0.0 mm
06:35 AM 37.1°F2.8°C 32.1°F0.1°C 82% 3.5 mph ESE5.6 kmh ESE 6.9 mph11.1 kmh 30.24 in1024.0 mb - 0.00 in0.0 mm 0.00 in0.0 mm
06:40 AM 37.4°F3.0°C 32.4°F0.2°C 82% 1.2 mph E1.9 kmh E 1.2 mph1.9 kmh 30.23 in1023.7 mb - 0.00 in0.0 mm 0.00 in0.0 mm
06:45 AM 37.5°F3.1°C 32.5°F0.3°C 82% 1.2 mph E1.9 kmh E 3.5 mph5.6 kmh 30.23 in1023.7 mb - 0.00 in0.0 mm 0.00 in0.0 mm
06:50 AM 37.7°F3.2°C 32.7°F0.4°C 82% 2.3 mph E3.7 kmh E 3.5 mph5.6 kmh 30.24 in1024.0 mb - 0.00 in0.0 mm 0.00 in0.0 mm
06:55 AM 38.1°F3.4°C 33.1°F0.6°C 82% 3.5 mph S5.6 kmh S 5.8 mph9.3 kmh 30.24 in1024.0 mb - 0.00 in0.0 mm 0.00 in0.0 mm
07:00 AM 37.8°F3.2°C 32.8°F0.4°C 82% 4.6 mph WSW7.4 kmh WSW 8.1 mph13.0 kmh 30.24 in1024.0 mb - 0.00 in0.0 mm 0.00 in0.0 mm
07:05 AM 36.8°F2.7°C 31.8°F-0.1°C 82% 6.9 mph SW11.1 kmh SW 10.4 mph16.7 kmh 30.25 in1024.4 mb - 0.00 in0.0 mm 0.00 in0.0 mm
07:10 AM 36.5°F2.5°C 31.5°F-0.3°C 82% 3.5 mph W5.6 kmh W 3.5 mph5.6 kmh 30.25 in1024.4 mb - 0.00 in0.0 mm 0.00 in0.0 mm
07:15 AM 36.5°F2.5°C 31.6°F-0.2°C 82% 5.8 mph WSW9.3 kmh WSW 9.2 mph14.8 kmh 30.25 in1024.4 mb - 0.00 in0.0 mm 0.00 in0.0 mm
07:20 AM 36.5°F2.5°C 31.5°F-0.3°C 82% 2.3 mph WSW3.7 kmh WSW 3.5 mph5.6 kmh 30.24 in1024.0 mb - 0.00 in0.0 mm 0.00 in0.0 mm
07:25 AM 36.6°F2.6°C 31.6°F-0.2°C 82% Calm Calm -- 30.24 in1024.0 mb - 0.00 in0.0 mm 0.00 in0.0 mm
07:30 AM 36.6°F2.6°C 31.6°F-0.2°C 82% Calm Calm -- 30.25 in1024.4 mb - 0.00 in0.0 mm 0.00 in0.0 mm
07:35 AM 36.6°F2.6°C 31.6°F-0.2°C 82% Calm Calm 3.5 mph5.6 kmh 30.25 in1024.4 mb - 0.00 in0.0 mm 0.00 in0.0 mm
07:40 AM 36.4°F2.4°C 31.5°F-0.3°C 82% 1.2 mph WSW1.9 kmh WSW 1.2 mph1.9 kmh 30.25 in1024.4 mb - 0.00 in0.0 mm 0.00 in0.0 mm
07:45 AM 36.4°F2.4°C 31.4°F-0.3°C 82% Calm Calm -- 30.25 in1024.4 mb - 0.00 in0.0 mm 0.00 in0.0 mm
07:50 AM 36.5°F2.5°C 31.6°F-0.2°C 82% Calm Calm -- 30.24 in1024.0 mb - 0.00 in0.0 mm 0.00 in0.0 mm
07:55 AM 36.7°F2.6°C 31.7°F-0.2°C 82% Calm Calm -- 30.24 in1024.0 mb - 0.00 in0.0 mm 0.00 in0.0 mm
08:00 AM 36.8°F2.7°C 31.8°F-0.1°C 82% Calm Calm -- 30.24 in1024.0 mb - 0.00 in0.0 mm 0.00 in0.0 mm
08:05 AM 36.8°F2.7°C 31.8°F-0.1°C 82% Calm Calm -- 30.24 in1024.0 mb - 0.00 in0.0 mm 0.00 in0.0 mm
08:10 AM 36.9°F2.7°C 31.9°F-0.1°C 82% Calm Calm -- 30.24 in1024.0 mb - 0.00 in0.0 mm 0.00 in0.0 mm
08:15 AM 36.8°F2.7°C 31.8°F-0.1°C 82% Calm Calm -- 30.23 in1023.7 mb - 0.00 in0.0 mm 0.00 in0.0 mm
08:20 AM 36.8°F2.7°C 31.8°F-0.1°C 82% 1.2 mph W1.9 kmh W 2.3 mph3.7 kmh 30.24 in1024.0 mb - 0.00 in0.0 mm 0.00 in0.0 mm
08:25 AM 36.8°F2.7°C 31.8°F-0.1°C 82% 1.2 mph W1.9 kmh W 2.3 mph3.7 kmh 30.23 in1023.7 mb - 0.00 in0.0 mm 0.00 in0.0 mm
08:30 AM 36.8°F2.7°C 31.8°F-0.1°C 82% Calm Calm -- 30.23 in1023.7 mb - 0.00 in0.0 mm 0.00 in0.0 mm
08:35 AM 37.0°F2.8°C 32.0°F0.0°C 82% Calm Calm -- 30.23 in1023.7 mb - 0.00 in0.0 mm 0.00 in0.0 mm
08:40 AM 37.1°F2.8°C 32.2°F0.1°C 82% 2.3 mph ESE3.7 kmh ESE 3.5 mph5.6 kmh 30.23 in1023.7 mb - 0.00 in0.0 mm 0.00 in0.0 mm
08:45 AM 37.7°F3.2°C 32.7°F0.4°C 82% 3.5 mph ESE5.6 kmh ESE 8.1 mph13.0 kmh 30.23 in1023.7 mb - 0.00 in0.0 mm 0.00 in0.0 mm
08:50 AM 38.4°F3.6°C 33.7°F0.9°C 83% 5.8 mph SE9.3 kmh SE 10.4 mph16.7 kmh 30.23 in1023.7 mb - 0.00 in0.0 mm 0.00 in0.0 mm
08:55 AM 39.0°F3.9°C 34.2°F1.2°C 83% 3.5 mph ESE5.6 kmh ESE 5.8 mph9.3 kmh 30.23 in1023.7 mb - 0.00 in0.0 mm 0.00 in0.0 mm
09:00 AM 39.4°F4.1°C 34.6°F1.4°C 83% 5.8 mph E9.3 kmh E 9.2 mph14.8 kmh 30.23 in1023.7 mb - 0.00 in0.0 mm 0.00 in0.0 mm
09:05 AM 39.8°F4.3°C 35.1°F1.7°C 83% 5.8 mph E9.3 kmh E 10.4 mph16.7 kmh 30.23 in1023.7 mb - 0.00 in0.0 mm 0.00 in0.0 mm
09:10 AM 40.2°F4.6°C 35.4°F1.9°C 83% 8.1 mph E13.0 kmh E 11.5 mph18.5 kmh 30.23 in1023.7 mb - 0.00 in0.0 mm 0.00 in0.0 mm
09:15 AM 40.5°F4.7°C 35.4°F1.9°C 82% 4.6 mph E7.4 kmh E 10.4 mph16.7 kmh 30.23 in1023.7 mb - 0.00 in0.0 mm 0.00 in0.0 mm
09:20 AM 40.7°F4.8°C 35.6°F2.0°C 82% 5.8 mph ESE9.3 kmh ESE 6.9 mph11.1 kmh 30.23 in1023.7 mb - 0.00 in0.0 mm 0.00 in0.0 mm
09:25 AM 40.8°F4.9°C 35.4°F1.9°C 81% 3.5 mph ESE5.6 kmh ESE 8.1 mph13.0 kmh 30.23 in1023.7 mb - 0.00 in0.0 mm 0.00 in0.0 mm
09:30 AM 40.9°F4.9°C 35.5°F1.9°C 81% 4.6 mph ESE7.4 kmh ESE 6.9 mph11.1 kmh 30.23 in1023.7 mb - 0.00 in0.0 mm 0.00 in0.0 mm
09:35 AM 41.0°F5.0°C 35.3°F1.8°C 80% 4.6 mph E7.4 kmh E 9.2 mph14.8 kmh 30.23 in1023.7 mb - 0.00 in0.0 mm 0.00 in0.0 mm
09:40 AM 41.1°F5.1°C 35.4°F1.9°C 80% 6.9 mph ESE11.1 kmh ESE 9.2 mph14.8 kmh 30.23 in1023.7 mb - 0.00 in0.0 mm 0.00 in0.0 mm
09:45 AM 41.4°F5.2°C 35.7°F2.1°C 80% 6.9 mph E11.1 kmh E 10.4 mph16.7 kmh 30.23 in1023.7 mb - 0.00 in0.0 mm 0.00 in0.0 mm
09:50 AM 41.6°F5.3°C 35.6°F2.0°C 79% 5.8 mph E9.3 kmh E 9.2 mph14.8 kmh 30.23 in1023.7 mb - 0.00 in0.0 mm 0.00 in0.0 mm
09:55 AM 41.9°F5.5°C 35.8°F2.1°C 79% 8.1 mph E13.0 kmh E 8.1 mph13.0 kmh 30.23 in1023.7 mb - 0.00 in0.0 mm 0.00 in0.0 mm
10:00 AM 42.0°F5.6°C 35.9°F2.2°C 79% 6.9 mph E11.1 kmh E 10.4 mph16.7 kmh 30.23 in1023.7 mb - 0.00 in0.0 mm 0.00 in0.0 mm
10:05 AM 42.3°F5.7°C 35.9°F2.2°C 78% 6.9 mph ESE11.1 kmh ESE 8.1 mph13.0 kmh 30.23 in1023.7 mb - 0.00 in0.0 mm 0.00 in0.0 mm
10:10 AM 42.6°F5.9°C 36.2°F2.3°C 78% 5.8 mph ESE9.3 kmh ESE 6.9 mph11.1 kmh 30.22 in1023.4 mb - 0.00 in0.0 mm 0.00 in0.0 mm
10:15 AM 42.7°F5.9°C 36.3°F2.4°C 78% 3.5 mph ESE5.6 kmh ESE 3.5 mph5.6 kmh 30.22 in1023.4 mb - 0.00 in0.0 mm 0.00 in0.0 mm
10:20 AM 42.9°F6.1°C 36.6°F2.6°C 78% 6.9 mph E11.1 kmh E 9.2 mph14.8 kmh 30.22 in1023.4 mb - 0.00 in0.0 mm 0.00 in0.0 mm
10:25 AM 43.2°F6.2°C 36.5°F2.5°C 77% 5.8 mph ESE9.3 kmh ESE 6.9 mph11.1 kmh 30.22 in1023.4 mb - 0.00 in0.0 mm 0.00 in0.0 mm
10:30 AM 43.2°F6.2°C 36.5°F2.5°C 77% 3.5 mph SE5.6 kmh SE 8.1 mph13.0 kmh 30.22 in1023.4 mb - 0.00 in0.0 mm 0.00 in0.0 mm
10:35 AM 43.3°F6.3°C 36.6°F2.6°C 77% 6.9 mph E11.1 kmh E 10.4 mph16.7 kmh 30.22 in1023.4 mb - 0.00 in0.0 mm 0.00 in0.0 mm
10:40 AM 43.6°F6.4°C 36.9°F2.7°C 77% 6.9 mph E11.1 kmh E 8.1 mph13.0 kmh 30.22 in1023.4 mb - 0.00 in0.0 mm 0.00 in0.0 mm
10:45 AM 43.7°F6.5°C 37.0°F2.8°C 77% 6.9 mph ESE11.1 kmh ESE 9.2 mph14.8 kmh 30.22 in1023.4 mb - 0.00 in0.0 mm 0.00 in0.0 mm
10:50 AM 43.7°F6.5°C 37.0°F2.8°C 77% 9.2 mph E14.8 kmh E 11.5 mph18.5 kmh 30.22 in1023.4 mb - 0.00 in0.0 mm 0.00 in0.0 mm
10:55 AM 43.7°F6.5°C 37.0°F2.8°C 77% 6.9 mph E11.1 kmh E 10.4 mph16.7 kmh 30.22 in1023.4 mb - 0.00 in0.0 mm 0.00 in0.0 mm
11:00 AM 43.8°F6.6°C 37.0°F2.8°C 77% 5.8 mph ESE9.3 kmh ESE 9.2 mph14.8 kmh 30.21 in1023.0 mb - 0.00 in0.0 mm 0.00 in0.0 mm
11:05 AM 43.8°F6.6°C 36.7°F2.6°C 76% 8.1 mph ESE13.0 kmh ESE 9.2 mph14.8 kmh 30.21 in1023.0 mb - 0.00 in0.0 mm 0.00 in0.0 mm
11:10 AM 43.9°F6.6°C 36.8°F2.7°C 76% 4.6 mph ESE7.4 kmh ESE 10.4 mph16.7 kmh 30.21 in1023.0 mb - 0.00 in0.0 mm 0.00 in0.0 mm
11:15 AM 44.0°F6.7°C 36.9°F2.7°C 76% 6.9 mph ESE11.1 kmh ESE 9.2 mph14.8 kmh 30.21 in1023.0 mb - 0.00 in0.0 mm 0.00 in0.0 mm
11:20 AM 44.0°F6.7°C 36.9°F2.7°C 76% 6.9 mph ESE11.1 kmh ESE 10.4 mph16.7 kmh 30.21 in1023.0 mb - 0.00 in0.0 mm 0.00 in0.0 mm
11:25 AM 44.1°F6.7°C 37.0°F2.8°C 76% 6.9 mph E11.1 kmh E 9.2 mph14.8 kmh 30.21 in1023.0 mb - 0.00 in0.0 mm 0.00 in0.0 mm
11:30 AM 44.2°F6.8°C 37.1°F2.8°C 76% 8.1 mph ESE13.0 kmh ESE 12.7 mph20.4 kmh 30.21 in1023.0 mb - 0.00 in0.0 mm 0.00 in0.0 mm
11:35 AM 44.2°F6.8°C 37.1°F2.8°C 76% 5.8 mph E9.3 kmh E 9.2 mph14.8 kmh 30.21 in1023.0 mb - 0.00 in0.0 mm 0.00 in0.0 mm
11:40 AM 44.1°F6.7°C 37.0°F2.8°C 76% 6.9 mph SE11.1 kmh SE 10.4 mph16.7 kmh 30.21 in1023.0 mb - 0.00 in0.0 mm 0.00 in0.0 mm
11:45 AM 44.0°F6.7°C 36.9°F2.7°C 76% 5.8 mph ESE9.3 kmh ESE 8.1 mph13.0 kmh 30.20 in1022.7 mb - 0.00 in0.0 mm 0.00 in0.0 mm
11:50 AM 43.8°F6.6°C 36.7°F2.6°C 76% 6.9 mph E11.1 kmh E 10.4 mph16.7 kmh 30.20 in1022.7 mb - 0.00 in0.0 mm 0.00 in0.0 mm
11:55 AM 43.8°F6.6°C 36.8°F2.7°C 76% 5.8 mph E9.3 kmh E 9.2 mph14.8 kmh 30.20 in1022.7 mb - 0.00 in0.0 mm 0.00 in0.0 mm
12:00 PM 43.8°F6.6°C 36.8°F2.7°C 76% 6.9 mph E11.1 kmh E 9.2 mph14.8 kmh 30.20 in1022.7 mb - 0.00 in0.0 mm 0.00 in0.0 mm
12:05 PM 43.8°F6.6°C 36.7°F2.6°C 76% 5.8 mph ESE9.3 kmh ESE 8.1 mph13.0 kmh 30.20 in1022.7 mb - 0.00 in0.0 mm 0.00 in0.0 mm
12:10 PM 43.8°F6.6°C 36.7°F2.6°C 76% 5.8 mph ESE9.3 kmh ESE 9.2 mph14.8 kmh 30.20 in1022.7 mb - 0.00 in0.0 mm 0.00 in0.0 mm
12:15 PM 43.8°F6.6°C 36.7°F2.6°C 76% 5.8 mph ESE9.3 kmh ESE 11.5 mph18.5 kmh 30.20 in1022.7 mb - 0.00 in0.0 mm 0.00 in0.0 mm
12:20 PM 43.8°F6.6°C 36.7°F2.6°C 76% 6.9 mph E11.1 kmh E 11.5 mph18.5 kmh 30.20 in1022.7 mb - 0.00 in0.0 mm 0.00 in0.0 mm
12:25 PM 43.8°F6.6°C 36.7°F2.6°C 76% 3.5 mph SE5.6 kmh SE 6.9 mph11.1 kmh 30.20 in1022.7 mb - 0.00 in0.0 mm 0.00 in0.0 mm
12:30 PM 43.8°F6.6°C 36.7°F2.6°C 76% 3.5 mph E5.6 kmh E 5.8 mph9.3 kmh 30.20 in1022.7 mb - 0.00 in0.0 mm 0.00 in0.0 mm
12:35 PM 43.7°F6.5°C 36.6°F2.6°C 76% 6.9 mph ESE11.1 kmh ESE 8.1 mph13.0 kmh 30.20 in1022.7 mb - 0.00 in0.0 mm 0.00 in0.0 mm
12:40 PM 43.8°F6.6°C 36.7°F2.6°C 76% 8.1 mph E13.0 kmh E 11.5 mph18.5 kmh 30.20 in1022.7 mb - 0.00 in0.0 mm 0.00 in0.0 mm
12:45 PM 43.8°F6.6°C 36.7°F2.6°C 76% 6.9 mph ESE11.1 kmh ESE 9.2 mph14.8 kmh 30.20 in1022.7 mb - 0.00 in0.0 mm 0.00 in0.0 mm
12:50 PM 43.8°F6.6°C 36.7°F2.6°C 76% 6.9 mph E11.1 kmh E 9.2 mph14.8 kmh 30.19 in1022.4 mb - 0.00 in0.0 mm 0.00 in0.0 mm
12:55 PM 43.8°F6.6°C 36.8°F2.7°C 76% 6.9 mph E11.1 kmh E 8.1 mph13.0 kmh 30.19 in1022.4 mb - 0.00 in0.0 mm 0.00 in0.0 mm
01:00 PM 43.9°F6.6°C 36.8°F2.7°C 76% 6.9 mph E11.1 kmh E 11.5 mph18.5 kmh 30.19 in1022.4 mb - 0.00 in0.0 mm 0.00 in0.0 mm
01:05 PM 43.9°F6.6°C 36.9°F2.7°C 76% 5.8 mph ESE9.3 kmh ESE 8.1 mph13.0 kmh 30.19 in1022.4 mb - 0.00 in0.0 mm 0.00 in0.0 mm
01:10 PM 44.0°F6.7°C 36.6°F2.6°C 75% 6.9 mph ESE11.1 kmh ESE 11.5 mph18.5 kmh 30.18 in1022.0 mb - 0.00 in0.0 mm 0.00 in0.0 mm
01:15 PM 43.9°F6.6°C 36.8°F2.7°C 76% 5.8 mph ESE9.3 kmh ESE 9.2 mph14.8 kmh 30.18 in1022.0 mb - 0.00 in0.0 mm 0.00 in0.0 mm
01:20 PM 43.8°F6.6°C 36.7°F2.6°C 76% 6.9 mph ESE11.1 kmh ESE 11.5 mph18.5 kmh 30.18 in1022.0 mb - 0.00 in0.0 mm 0.00 in0.0 mm
01:25 PM 43.8°F6.6°C 36.7°F2.6°C 76% 8.1 mph ESE13.0 kmh ESE 11.5 mph18.5 kmh 30.18 in1022.0 mb - 0.00 in0.0 mm 0.00 in0.0 mm
01:30 PM 43.8°F6.6°C 36.4°F2.4°C 75% 6.9 mph ESE11.1 kmh ESE 10.4 mph16.7 kmh 30.18 in1022.0 mb - 0.00 in0.0 mm 0.00 in0.0 mm
01:35 PM 43.8°F6.6°C 36.4°F2.4°C 75% 6.9 mph E11.1 kmh E 8.1 mph13.0 kmh 30.18 in1022.0 mb - 0.00 in0.0 mm 0.00 in0.0 mm
01:40 PM 43.8°F6.6°C 36.4°F2.4°C 75% 6.9 mph E11.1 kmh E 11.5 mph18.5 kmh 30.18 in1022.0 mb - 0.00 in0.0 mm 0.00 in0.0 mm
01:45 PM 43.8°F6.6°C 36.4°F2.4°C 75% 6.9 mph ESE11.1 kmh ESE 10.4 mph16.7 kmh 30.18 in1022.0 mb - 0.00 in0.0 mm 0.00 in0.0 mm
01:50 PM 43.8°F6.6°C 36.4°F2.4°C 75% 5.8 mph E9.3 kmh E 6.9 mph11.1 kmh 30.18 in1022.0 mb - 0.00 in0.0 mm 0.00 in0.0 mm
01:55 PM 43.9°F6.6°C 36.5°F2.5°C 75% 3.5 mph ESE5.6 kmh ESE 5.8 mph9.3 kmh 30.17 in1021.7 mb - 0.00 in0.0 mm 0.00 in0.0 mm
02:00 PM 43.9°F6.6°C 36.5°F2.5°C 75% 4.6 mph ESE7.4 kmh ESE 6.9 mph11.1 kmh 30.17 in1021.7 mb - 0.00 in0.0 mm 0.00 in0.0 mm
02:05 PM 44.0°F6.7°C 36.6°F2.6°C 75% 5.8 mph E9.3 kmh E 8.1 mph13.0 kmh 30.17 in1021.7 mb - 0.00 in0.0 mm 0.00 in0.0 mm
02:10 PM 44.0°F6.7°C 36.6°F2.6°C 75% 5.8 mph ESE9.3 kmh ESE 8.1 mph13.0 kmh 30.17 in1021.7 mb - 0.00 in0.0 mm 0.00 in0.0 mm
02:15 PM 44.0°F6.7°C 36.6°F2.6°C 75% 5.8 mph ESE9.3 kmh ESE 9.2 mph14.8 kmh 30.17 in1021.7 mb - 0.00 in0.0 mm 0.00 in0.0 mm
02:20 PM 44.0°F6.7°C 36.6°F2.6°C 75% 8.1 mph ESE13.0 kmh ESE 10.4 mph16.7 kmh 30.17 in1021.7 mb - 0.00 in0.0 mm 0.00 in0.0 mm
02:25 PM 44.0°F6.7°C 36.6°F2.6°C 75% 4.6 mph ESE7.4 kmh ESE 6.9 mph11.1 kmh 30.17 in1021.7 mb - 0.00 in0.0 mm 0.00 in0.0 mm
02:30 PM 44.0°F6.7°C 36.6°F2.6°C 75% 6.9 mph ESE11.1 kmh ESE 9.2 mph14.8 kmh 30.17 in1021.7 mb - 0.00 in0.0 mm 0.00 in0.0 mm
02:35 PM 43.9°F6.6°C 36.5°F2.5°C 75% 4.6 mph ESE7.4 kmh ESE 8.1 mph13.0 kmh 30.16 in1021.3 mb - 0.00 in0.0 mm 0.00 in0.0 mm
02:40 PM 43.7°F6.5°C 36.3°F2.4°C 75% 6.9 mph E11.1 kmh E 10.4 mph16.7 kmh 30.16 in1021.3 mb - 0.00 in0.0 mm 0.00 in0.0 mm
02:45 PM 43.7°F6.5°C 36.3°F2.4°C 75% 5.8 mph ESE9.3 kmh ESE 8.1 mph13.0 kmh 30.16 in1021.3 mb - 0.00 in0.0 mm 0.00 in0.0 mm
02:50 PM 43.5°F6.4°C 36.1°F2.3°C 75% 4.6 mph ESE7.4 kmh ESE 8.1 mph13.0 kmh 30.16 in1021.3 mb - 0.00 in0.0 mm 0.00 in0.0 mm
02:55 PM 43.4°F6.3°C 36.0°F2.2°C 75% 5.8 mph ESE9.3 kmh ESE 9.2 mph14.8 kmh 30.16 in1021.3 mb - 0.00 in0.0 mm 0.00 in0.0 mm
03:00 PM 43.3°F6.3°C 35.9°F2.2°C 75% 6.9 mph E11.1 kmh E 8.1 mph13.0 kmh 30.16 in1021.3 mb - 0.00 in0.0 mm 0.00 in0.0 mm
03:05 PM 43.4°F6.3°C 36.0°F2.2°C 75% 6.9 mph ESE11.1 kmh ESE 9.2 mph14.8 kmh 30.16 in1021.3 mb - 0.00 in0.0 mm 0.00 in0.0 mm
03:10 PM 43.4°F6.3°C 36.0°F2.2°C 75% 5.8 mph ESE9.3 kmh ESE 8.1 mph13.0 kmh 30.16 in1021.3 mb - 0.00 in0.0 mm 0.00 in0.0 mm
03:15 PM 43.4°F6.3°C 36.0°F2.2°C 75% 4.6 mph E7.4 kmh E 6.9 mph11.1 kmh 30.16 in1021.3 mb - 0.00 in0.0 mm 0.00 in0.0 mm
03:20 PM 43.4°F6.3°C 36.0°F2.2°C 75% 4.6 mph ESE7.4 kmh ESE 8.1 mph13.0 kmh 30.15 in1021.0 mb - 0.00 in0.0 mm 0.00 in0.0 mm
03:25 PM 43.4°F6.3°C 36.0°F2.2°C 75% 4.6 mph E7.4 kmh E 6.9 mph11.1 kmh 30.15 in1021.0 mb - 0.00 in0.0 mm 0.00 in0.0 mm
03:30 PM 43.4°F6.3°C 36.0°F2.2°C 75% 6.9 mph ESE11.1 kmh ESE 11.5 mph18.5 kmh 30.15 in1021.0 mb - 0.00 in0.0 mm 0.00 in0.0 mm
03:35 PM 43.3°F6.3°C 35.9°F2.2°C 75% 4.6 mph E7.4 kmh E 6.9 mph11.1 kmh 30.15 in1021.0 mb - 0.00 in0.0 mm 0.00 in0.0 mm
03:40 PM 43.2°F6.2°C 35.8°F2.1°C 75% 5.8 mph ESE9.3 kmh ESE 8.1 mph13.0 kmh 30.15 in1021.0 mb - 0.00 in0.0 mm 0.00 in0.0 mm
03:45 PM 43.1°F6.2°C 35.7°F2.1°C 75% 4.6 mph E7.4 kmh E 6.9 mph11.1 kmh 30.15 in1021.0 mb - 0.00 in0.0 mm 0.00 in0.0 mm
03:50 PM 43.0°F6.1°C 35.6°F2.0°C 75% 4.6 mph E7.4 kmh E 9.2 mph14.8 kmh 30.15 in1021.0 mb - 0.00 in0.0 mm 0.00 in0.0 mm
03:55 PM 42.9°F6.1°C 35.5°F1.9°C 75% 4.6 mph ESE7.4 kmh ESE 6.9 mph11.1 kmh 30.15 in1021.0 mb - 0.00 in0.0 mm 0.00 in0.0 mm
04:00 PM 42.9°F6.1°C 35.9°F2.2°C 76% 4.6 mph E7.4 kmh E 9.2 mph14.8 kmh 30.14 in1020.7 mb - 0.00 in0.0 mm 0.00 in0.0 mm
04:05 PM 42.9°F6.1°C 35.9°F2.2°C 76% 5.8 mph E9.3 kmh E 10.4 mph16.7 kmh 30.15 in1021.0 mb - 0.00 in0.0 mm 0.00 in0.0 mm
04:10 PM 42.9°F6.1°C 35.5°F1.9°C 75% 5.8 mph E9.3 kmh E 8.1 mph13.0 kmh 30.15 in1021.0 mb - 0.00 in0.0 mm 0.00 in0.0 mm
04:15 PM 43.0°F6.1°C 35.6°F2.0°C 75% 6.9 mph E11.1 kmh E 10.4 mph16.7 kmh 30.15 in1021.0 mb - 0.00 in0.0 mm 0.00 in0.0 mm
04:20 PM 43.1°F6.2°C 35.7°F2.1°C 75% 5.8 mph ESE9.3 kmh ESE 10.4 mph16.7 kmh 30.15 in1021.0 mb - 0.00 in0.0 mm 0.00 in0.0 mm
04:25 PM 43.0°F6.1°C 35.6°F2.0°C 75% 5.8 mph ESE9.3 kmh ESE 8.1 mph13.0 kmh 30.15 in1021.0 mb - 0.00 in0.0 mm 0.00 in0.0 mm
04:30 PM 43.1°F6.2°C 35.7°F2.1°C 75% 5.8 mph E9.3 kmh E 8.1 mph13.0 kmh 30.15 in1021.0 mb - 0.00 in0.0 mm 0.00 in0.0 mm
04:35 PM 43.1°F6.2°C 35.7°F2.1°C 75% 4.6 mph ESE7.4 kmh ESE 6.9 mph11.1 kmh 30.15 in1021.0 mb - 0.00 in0.0 mm 0.00 in0.0 mm
04:40 PM 43.1°F6.2°C 35.7°F2.1°C 75% 6.9 mph ESE11.1 kmh ESE 9.2 mph14.8 kmh 30.14 in1020.7 mb - 0.00 in0.0 mm 0.00 in0.0 mm
04:45 PM 43.0°F6.1°C 35.6°F2.0°C 75% 8.1 mph E13.0 kmh E 10.4 mph16.7 kmh 30.14 in1020.7 mb - 0.00 in0.0 mm 0.00 in0.0 mm
04:50 PM 42.9°F6.1°C 35.6°F2.0°C 75% 6.9 mph ESE11.1 kmh ESE 10.4 mph16.7 kmh 30.14 in1020.7 mb - 0.00 in0.0 mm 0.00 in0.0 mm
04:55 PM 43.0°F6.1°C 35.6°F2.0°C 75% 5.8 mph ESE9.3 kmh ESE 8.1 mph13.0 kmh 30.14 in1020.7 mb - 0.00 in0.0 mm 0.00 in0.0 mm
05:00 PM 42.9°F6.1°C 35.5°F1.9°C 75% 5.8 mph ESE9.3 kmh ESE 11.5 mph18.5 kmh 30.14 in1020.7 mb - 0.00 in0.0 mm 0.00 in0.0 mm
05:05 PM 42.9°F6.1°C 35.5°F1.9°C 75% 6.9 mph E11.1 kmh E 11.5 mph18.5 kmh 30.14 in1020.7 mb - 0.00 in0.0 mm 0.00 in0.0 mm
05:10 PM 42.9°F6.1°C 35.5°F1.9°C 75% 5.8 mph E9.3 kmh E 9.2 mph14.8 kmh 30.14 in1020.7 mb - 0.00 in0.0 mm 0.00 in0.0 mm
05:15 PM 42.9°F6.1°C 35.5°F1.9°C 75% 4.6 mph E7.4 kmh E 6.9 mph11.1 kmh 30.14 in1020.7 mb - 0.00 in0.0 mm 0.00 in0.0 mm
05:20 PM 42.9°F6.1°C 35.5°F1.9°C 75% 5.8 mph ESE9.3 kmh ESE 6.9 mph11.1 kmh 30.14 in1020.7 mb - 0.00 in0.0 mm 0.00 in0.0 mm
05:25 PM 42.9°F6.1°C 35.5°F1.9°C 75% 5.8 mph ESE9.3 kmh ESE 6.9 mph11.1 kmh 30.14 in1020.7 mb - 0.00 in0.0 mm 0.00 in0.0 mm
05:30 PM 42.8°F6.0°C 35.4°F1.9°C 75% 4.6 mph ESE7.4 kmh ESE 8.1 mph13.0 kmh 30.14 in1020.7 mb - 0.00 in0.0 mm 0.00 in0.0 mm
05:35 PM 42.7°F5.9°C 35.4°F1.9°C 75% 4.6 mph ESE7.4 kmh ESE 8.1 mph13.0 kmh 30.14 in1020.7 mb - 0.00 in0.0 mm 0.00 in0.0 mm
05:40 PM 42.7°F5.9°C 35.3°F1.8°C 75% 5.8 mph E9.3 kmh E 9.2 mph14.8 kmh 30.14 in1020.7 mb - 0.00 in0.0 mm 0.00 in0.0 mm
05:45 PM 42.7°F5.9°C 35.3°F1.8°C 75% 4.6 mph E7.4 kmh E 11.5 mph18.5 kmh 30.14 in1020.7 mb - 0.00 in0.0 mm 0.00 in0.0 mm
05:50 PM 42.8°F6.0°C 35.4°F1.9°C 75% 4.6 mph ESE7.4 kmh ESE 8.1 mph13.0 kmh 30.14 in1020.7 mb - 0.00 in0.0 mm 0.00 in0.0 mm
05:55 PM 42.8°F6.0°C 35.4°F1.9°C 75% 5.8 mph E9.3 kmh E 8.1 mph13.0 kmh 30.14 in1020.7 mb - 0.00 in0.0 mm 0.00 in0.0 mm
06:00 PM 42.7°F5.9°C 35.3°F1.8°C 75% 5.8 mph E9.3 kmh E 8.1 mph13.0 kmh 30.14 in1020.7 mb - 0.00 in0.0 mm 0.00 in0.0 mm
06:05 PM 42.6°F5.9°C 35.2°F1.8°C 75% 4.6 mph SE7.4 kmh SE 8.1 mph13.0 kmh 30.14 in1020.7 mb - 0.00 in0.0 mm 0.00 in0.0 mm
06:10 PM 42.5°F5.8°C 35.2°F1.8°C 75% 5.8 mph ESE9.3 kmh ESE 8.1 mph13.0 kmh 30.14 in1020.7 mb - 0.00 in0.0 mm 0.00 in0.0 mm
06:15 PM 42.8°F6.0°C 35.1°F1.7°C 74% 6.9 mph ESE11.1 kmh ESE 10.4 mph16.7 kmh 30.14 in1020.7 mb - 0.00 in0.0 mm 0.00 in0.0 mm
06:20 PM 42.9°F6.1°C 35.2°F1.8°C 74% 8.1 mph E13.0 kmh E 10.4 mph16.7 kmh 30.14 in1020.7 mb - 0.00 in0.0 mm 0.00 in0.0 mm
06:25 PM 43.0°F6.1°C 35.3°F1.8°C 74% 8.1 mph SE13.0 kmh SE 9.2 mph14.8 kmh 30.14 in1020.7 mb - 0.00 in0.0 mm 0.00 in0.0 mm
06:30 PM 43.0°F6.1°C 35.2°F1.8°C 74% 8.1 mph SE13.0 kmh SE 11.5 mph18.5 kmh 30.13 in1020.3 mb - 0.00 in0.0 mm 0.00 in0.0 mm
06:35 PM 42.9°F6.1°C 35.2°F1.8°C 74% 6.9 mph ESE11.1 kmh ESE 9.2 mph14.8 kmh 30.13 in1020.3 mb - 0.00 in0.0 mm 0.00 in0.0 mm
06:40 PM 42.9°F6.1°C 34.8°F1.6°C 73% 4.6 mph ESE7.4 kmh ESE 6.9 mph11.1 kmh 30.13 in1020.3 mb - 0.00 in0.0 mm 0.00 in0.0 mm
06:45 PM 42.8°F6.0°C 35.1°F1.7°C 74% 6.9 mph ESE11.1 kmh ESE 8.1 mph13.0 kmh 30.13 in1020.3 mb - 0.00 in0.0 mm 0.00 in0.0 mm
06:50 PM 42.7°F5.9°C 35.0°F1.7°C 74% 6.9 mph ESE11.1 kmh ESE 10.4 mph16.7 kmh 30.13 in1020.3 mb - 0.00 in0.0 mm 0.00 in0.0 mm
06:55 PM 42.7°F5.9°C 35.0°F1.7°C 74% 4.6 mph SE7.4 kmh SE 6.9 mph11.1 kmh 30.13 in1020.3 mb - 0.00 in0.0 mm 0.00 in0.0 mm
07:00 PM 42.6°F5.9°C 34.9°F1.6°C 74% 3.5 mph ESE5.6 kmh ESE 6.9 mph11.1 kmh 30.13 in1020.3 mb - 0.00 in0.0 mm 0.00 in0.0 mm
07:05 PM 42.5°F5.8°C 35.1°F1.7°C 75% 4.6 mph E7.4 kmh E 6.9 mph11.1 kmh 30.13 in1020.3 mb - 0.00 in0.0 mm 0.00 in0.0 mm
07:10 PM 42.5°F5.8°C 35.1°F1.7°C 75% 5.8 mph ESE9.3 kmh ESE 8.1 mph13.0 kmh 30.13 in1020.3 mb - 0.00 in0.0 mm 0.00 in0.0 mm
07:15 PM 42.5°F5.8°C 35.1°F1.7°C 75% 5.8 mph ESE9.3 kmh ESE 9.2 mph14.8 kmh 30.13 in1020.3 mb - 0.00 in0.0 mm 0.00 in0.0 mm
07:20 PM 42.4°F5.8°C 35.0°F1.7°C 75% 6.9 mph ESE11.1 kmh ESE 10.4 mph16.7 kmh 30.13 in1020.3 mb - 0.00 in0.0 mm 0.00 in0.0 mm
07:25 PM 42.3°F5.7°C 34.9°F1.6°C 75% 6.9 mph E11.1 kmh E 9.2 mph14.8 kmh 30.13 in1020.3 mb - 0.00 in0.0 mm 0.00 in0.0 mm
07:30 PM 42.3°F5.7°C 34.9°F1.6°C 75% 5.8 mph E9.3 kmh E 9.2 mph14.8 kmh 30.13 in1020.3 mb - 0.00 in0.0 mm 0.00 in0.0 mm
07:35 PM 42.3°F5.7°C 34.9°F1.6°C 75% 6.9 mph ESE11.1 kmh ESE 12.7 mph20.4 kmh 30.13 in1020.3 mb - 0.00 in0.0 mm 0.00 in0.0 mm
07:40 PM 42.4°F5.8°C 34.7°F1.5°C 74% 4.6 mph E7.4 kmh E 11.5 mph18.5 kmh 30.13 in1020.3 mb - 0.00 in0.0 mm 0.00 in0.0 mm
07:45 PM 42.4°F5.8°C 34.7°F1.5°C 74% 6.9 mph ESE11.1 kmh ESE 9.2 mph14.8 kmh 30.13 in1020.3 mb - 0.00 in0.0 mm 0.00 in0.0 mm
07:50 PM 42.4°F5.8°C 34.7°F1.5°C 74% 8.1 mph ESE13.0 kmh ESE 10.4 mph16.7 kmh 30.13 in1020.3 mb - 0.00 in0.0 mm 0.00 in0.0 mm
07:55 PM 42.4°F5.8°C 34.7°F1.5°C 74% 5.8 mph ESE9.3 kmh ESE 6.9 mph11.1 kmh 30.13 in1020.3 mb - 0.00 in0.0 mm 0.00 in0.0 mm
08:00 PM 42.4°F5.8°C 34.7°F1.5°C 74% 6.9 mph ESE11.1 kmh ESE 11.5 mph18.5 kmh 30.13 in1020.3 mb - 0.00 in0.0 mm 0.00 in0.0 mm
08:05 PM 42.4°F5.8°C 34.7°F1.5°C 74% 8.1 mph ESE13.0 kmh ESE 10.4 mph16.7 kmh 30.12 in1020.0 mb - 0.00 in0.0 mm 0.00 in0.0 mm
08:10 PM 42.4°F5.8°C 34.7°F1.5°C 74% 8.1 mph E13.0 kmh E 11.5 mph18.5 kmh 30.12 in1020.0 mb - 0.00 in0.0 mm 0.00 in0.0 mm
08:15 PM 42.4°F5.8°C 34.7°F1.5°C 74% 5.8 mph ESE9.3 kmh ESE 9.2 mph14.8 kmh 30.12 in1020.0 mb - 0.00 in0.0 mm 0.00 in0.0 mm
08:20 PM 42.3°F5.7°C 34.6°F1.4°C 74% 6.9 mph E11.1 kmh E 11.5 mph18.5 kmh 30.12 in1020.0 mb - 0.00 in0.0 mm 0.00 in0.0 mm
08:25 PM 42.3°F5.7°C 34.6°F1.4°C 74% 6.9 mph E11.1 kmh E 9.2 mph14.8 kmh 30.12 in1020.0 mb - 0.00 in0.0 mm 0.00 in0.0 mm
08:30 PM 42.3°F5.7°C 34.9°F1.6°C 75% 6.9 mph E11.1 kmh E 10.4 mph16.7 kmh 30.12 in1020.0 mb - 0.00 in0.0 mm 0.00 in0.0 mm
08:35 PM 42.3°F5.7°C 34.6°F1.4°C 74% 5.8 mph ESE9.3 kmh ESE 6.9 mph11.1 kmh 30.12 in1020.0 mb - 0.00 in0.0 mm 0.00 in0.0 mm
08:40 PM 42.3°F5.7°C 34.6°F1.4°C 74% 8.1 mph E13.0 kmh E 11.5 mph18.5 kmh 30.12 in1020.0 mb - 0.00 in0.0 mm 0.00 in0.0 mm
08:45 PM 42.4°F5.8°C 34.7°F1.5°C 74% 6.9 mph E11.1 kmh E 9.2 mph14.8 kmh 30.12 in1020.0 mb - 0.00 in0.0 mm 0.00 in0.0 mm
08:50 PM 42.4°F5.8°C 34.7°F1.5°C 74% 5.8 mph ESE9.3 kmh ESE 8.1 mph13.0 kmh 30.12 in1020.0 mb - 0.00 in0.0 mm 0.00 in0.0 mm
08:55 PM 42.4°F5.8°C 34.7°F1.5°C 74% 8.1 mph E13.0 kmh E 10.4 mph16.7 kmh 30.12 in1020.0 mb - 0.00 in0.0 mm 0.00 in0.0 mm
09:00 PM 42.4°F5.8°C 34.7°F1.5°C 74% 5.8 mph E9.3 kmh E 10.4 mph16.7 kmh 30.11 in1019.6 mb - 0.00 in0.0 mm 0.00 in0.0 mm
09:05 PM 42.4°F5.8°C 34.7°F1.5°C 74% 6.9 mph ESE11.1 kmh ESE 9.2 mph14.8 kmh 30.11 in1019.6 mb - 0.00 in0.0 mm 0.00 in0.0 mm
09:10 PM 42.3°F5.7°C 34.6°F1.4°C 74% 8.1 mph E13.0 kmh E 10.4 mph16.7 kmh 30.11 in1019.6 mb - 0.00 in0.0 mm 0.00 in0.0 mm
09:15 PM 42.2°F5.7°C 34.8°F1.6°C 75% 5.8 mph ESE9.3 kmh ESE 11.5 mph18.5 kmh 30.11 in1019.6 mb - 0.00 in0.0 mm 0.00 in0.0 mm
09:20 PM 42.0°F5.6°C 34.7°F1.5°C 75% 3.5 mph SE5.6 kmh SE 4.6 mph7.4 kmh 30.11 in1019.6 mb - 0.00 in0.0 mm 0.00 in0.0 mm
09:25 PM 41.9°F5.5°C 34.6°F1.4°C 75% 5.8 mph ESE9.3 kmh ESE 9.2 mph14.8 kmh 30.11 in1019.6 mb - 0.00 in0.0 mm 0.00 in0.0 mm
09:30 PM 41.8°F5.4°C 34.5°F1.4°C 75% 6.9 mph ESE11.1 kmh ESE 9.2 mph14.8 kmh 30.11 in1019.6 mb - 0.00 in0.0 mm 0.00 in0.0 mm
09:35 PM 41.9°F5.5°C 34.5°F1.4°C 75% 5.8 mph ESE9.3 kmh ESE 11.5 mph18.5 kmh 30.11 in1019.6 mb - 0.00 in0.0 mm 0.00 in0.0 mm
09:40 PM 41.7°F5.4°C 34.3°F1.3°C 75% 5.8 mph SE9.3 kmh SE 6.9 mph11.1 kmh 30.10 in1019.3 mb - 0.00 in0.0 mm 0.00 in0.0 mm
09:45 PM 41.6°F5.3°C 34.3°F1.3°C 75% 5.8 mph ESE9.3 kmh ESE 8.1 mph13.0 kmh 30.10 in1019.3 mb - 0.00 in0.0 mm 0.00 in0.0 mm
09:50 PM 41.7°F5.4°C 34.4°F1.3°C 75% 6.9 mph E11.1 kmh E 11.5 mph18.5 kmh 30.10 in1019.3 mb - 0.00 in0.0 mm 0.00 in0.0 mm
09:55 PM 41.9°F5.5°C 34.6°F1.4°C 75% 5.8 mph E9.3 kmh E 9.2 mph14.8 kmh 30.10 in1019.3 mb - 0.00 in0.0 mm 0.00 in0.0 mm
10:00 PM 42.1°F5.6°C 34.4°F1.3°C 74% 9.2 mph E14.8 kmh E 11.5 mph18.5 kmh 30.10 in1019.3 mb - 0.00 in0.0 mm 0.00 in0.0 mm
10:05 PM 42.1°F5.6°C 34.7°F1.5°C 75% 8.1 mph ESE13.0 kmh ESE 10.4 mph16.7 kmh 30.10 in1019.3 mb - 0.00 in0.0 mm 0.00 in0.0 mm
10:10 PM 42.0°F5.6°C 34.6°F1.4°C 75% 6.9 mph ESE11.1 kmh ESE 12.7 mph20.4 kmh 30.10 in1019.3 mb - 0.00 in0.0 mm 0.00 in0.0 mm
10:15 PM 41.8°F5.4°C 34.5°F1.4°C 75% 6.9 mph E11.1 kmh E 12.7 mph20.4 kmh 30.10 in1019.3 mb - 0.00 in0.0 mm 0.00 in0.0 mm
10:20 PM 41.6°F5.3°C 34.3°F1.3°C 75% 6.9 mph ESE11.1 kmh ESE 10.4 mph16.7 kmh 30.10 in1019.3 mb - 0.00 in0.0 mm 0.00 in0.0 mm
10:25 PM 41.5°F5.3°C 34.5°F1.4°C 76% 6.9 mph E11.1 kmh E 10.4 mph16.7 kmh 30.09 in1019.0 mb - 0.00 in0.0 mm 0.00 in0.0 mm
10:30 PM 41.5°F5.3°C 34.5°F1.4°C 76% 8.1 mph E13.0 kmh E 10.4 mph16.7 kmh 30.09 in1019.0 mb - 0.00 in0.0 mm 0.00 in0.0 mm
10:35 PM 41.6°F5.3°C 34.6°F1.4°C 76% 5.8 mph SE9.3 kmh SE 11.5 mph18.5 kmh 30.09 in1019.0 mb - 0.00 in0.0 mm 0.00 in0.0 mm
10:40 PM 41.4°F5.2°C 34.4°F1.3°C 76% 8.1 mph E13.0 kmh E 11.5 mph18.5 kmh 30.09 in1019.0 mb - 0.00 in0.0 mm 0.00 in0.0 mm
10:45 PM 41.4°F5.2°C 34.4°F1.3°C 76% 6.9 mph E11.1 kmh E 11.5 mph18.5 kmh 30.09 in1019.0 mb - 0.00 in0.0 mm 0.00 in0.0 mm
10:50 PM 41.6°F5.3°C 34.6°F1.4°C 76% 8.1 mph ESE13.0 kmh ESE 10.4 mph16.7 kmh 30.09 in1019.0 mb - 0.00 in0.0 mm 0.00 in0.0 mm
10:55 PM 41.7°F5.4°C 34.4°F1.3°C 75% 10.4 mph E16.7 kmh E 12.7 mph20.4 kmh 30.08 in1018.6 mb - 0.00 in0.0 mm 0.00 in0.0 mm
11:00 PM 41.8°F5.4°C 34.8°F1.6°C 76% 10.4 mph E16.7 kmh E 15.0 mph24.1 kmh 30.08 in1018.6 mb - 0.00 in0.0 mm 0.00 in0.0 mm
11:05 PM 41.8°F5.4°C 34.4°F1.3°C 75% 9.2 mph E14.8 kmh E 12.7 mph20.4 kmh 30.08 in1018.6 mb - 0.00 in0.0 mm 0.00 in0.0 mm
11:10 PM 41.7°F5.4°C 34.7°F1.5°C 76% 6.9 mph E11.1 kmh E 11.5 mph18.5 kmh 30.08 in1018.6 mb - 0.00 in0.0 mm 0.00 in0.0 mm
11:15 PM 41.6°F5.3°C 34.6°F1.4°C 76% 8.1 mph ESE13.0 kmh ESE 13.8 mph22.2 kmh 30.08 in1018.6 mb - 0.00 in0.0 mm 0.00 in0.0 mm
11:20 PM 41.5°F5.3°C 34.5°F1.4°C 76% 10.4 mph E16.7 kmh E 15.0 mph24.1 kmh 30.08 in1018.6 mb - 0.00 in0.0 mm 0.00 in0.0 mm
11:25 PM 41.4°F5.2°C 34.4°F1.3°C 76% 8.1 mph E13.0 kmh E 13.8 mph22.2 kmh 30.08 in1018.6 mb - 0.00 in0.0 mm 0.00 in0.0 mm
11:30 PM 41.3°F5.2°C 34.3°F1.3°C 76% 6.9 mph E11.1 kmh E 10.4 mph16.7 kmh 30.08 in1018.6 mb - 0.00 in0.0 mm 0.00 in0.0 mm
11:35 PM 41.3°F5.2°C 34.3°F1.3°C 76% 8.1 mph E13.0 kmh E 10.4 mph16.7 kmh 30.08 in1018.6 mb - 0.00 in0.0 mm 0.00 in0.0 mm
11:40 PM 41.2°F5.1°C 34.2°F1.2°C 76% 4.6 mph ESE7.4 kmh ESE 9.2 mph14.8 kmh 30.08 in1018.6 mb - 0.00 in0.0 mm 0.00 in0.0 mm
11:45 PM 41.1°F5.1°C 34.1°F1.2°C 76% 8.1 mph ESE13.0 kmh ESE 10.4 mph16.7 kmh 30.08 in1018.6 mb - 0.00 in0.0 mm 0.00 in0.0 mm
11:50 PM 41.1°F5.1°C 34.1°F1.2°C 76% 9.2 mph ESE14.8 kmh ESE 11.5 mph18.5 kmh 30.08 in1018.6 mb - 0.00 in0.0 mm 0.00 in0.0 mm
11:55 PM 41.0°F5.0°C 34.0°F1.1°C 76% 6.9 mph ESE11.1 kmh ESE 10.4 mph16.7 kmh 30.08 in1018.6 mb - 0.00 in0.0 mm 0.00 in0.0 mm